createdAt,value
2018-02-02T00:01:41.102Z,16.70
2018-02-02T00:04:09.386Z,14.50
2018-02-02T00:06:38.943Z,20.13
2018-02-02T00:09:07.932Z,11.17
2018-02-02T00:11:36.993Z,15.53
2018-02-02T00:14:05.274Z,16.53
2018-02-02T00:16:33.550Z,16.00
2018-02-02T00:19:01.794Z,18.93
2018-02-02T00:21:30.095Z,19.87
2018-02-02T00:23:58.413Z,16.67
2018-02-02T00:26:26.715Z,19.43
2018-02-02T00:28:54.966Z,17.47
2018-02-02T00:31:23.280Z,18.23
2018-02-02T00:33:51.534Z,15.97
2018-02-02T00:36:19.787Z,17.97
2018-02-02T00:38:48.226Z,19.10
2018-02-02T00:41:17.447Z,19.27
2018-02-02T00:43:46.482Z,19.80
2018-02-02T00:46:14.731Z,15.60
2018-02-02T00:48:43.031Z,21.47
2018-02-02T00:51:11.287Z,19.47
2018-02-02T00:53:39.563Z,17.03
2018-02-02T00:56:07.810Z,17.57
2018-02-02T00:58:36.898Z,18.90
2018-02-02T01:01:05.935Z,16.63
2018-02-02T01:03:34.416Z,19.90
2018-02-02T01:06:02.678Z,21.57
2018-02-02T01:08:30.935Z,15.87
2018-02-02T01:10:59.236Z,19.40
2018-02-02T01:13:27.479Z,17.93
2018-02-02T01:15:56.505Z,18.03
2018-02-02T01:18:24.764Z,16.97
2018-02-02T01:20:53.030Z,16.67
2018-02-02T01:23:21.287Z,18.50
2018-02-02T01:25:50.301Z,17.30
2018-02-02T01:28:18.568Z,15.90
2018-02-02T01:30:47.594Z,19.60
2018-02-02T01:33:15.876Z,19.60
2018-02-02T01:35:44.114Z,21.37
2018-02-02T01:38:12.385Z,19.40
2018-02-02T01:40:41.423Z,20.43
2018-02-02T01:43:09.699Z,20.70
2018-02-02T01:45:38.803Z,21.80
2018-02-02T01:48:18.963Z,23.87
2018-02-02T01:50:50.121Z,20.03
2018-02-02T01:53:18.492Z,17.73
2018-02-02T01:55:47.534Z,21.07
2018-02-02T01:58:15.846Z,17.53
2018-02-02T02:00:44.271Z,19.37
2018-02-02T02:03:12.553Z,15.17
2018-02-02T02:05:40.809Z,19.17
2018-02-02T02:08:09.874Z,18.07
2018-02-02T02:10:38.148Z,17.33
2018-02-02T02:13:06.406Z,22.37
2018-02-02T02:15:36.221Z,19.73
2018-02-02T02:18:04.485Z,20.53
2018-02-02T02:20:32.768Z,23.17
2018-02-02T02:23:01.046Z,17.13
2018-02-02T02:25:29.398Z,22.90
2018-02-02T02:27:57.654Z,20.80
2018-02-02T02:30:25.955Z,21.63
2018-02-02T02:32:54.214Z,21.87
2018-02-02T02:35:22.478Z,26.20
2018-02-02T02:37:50.736Z,23.63
2018-02-02T02:40:19.080Z,27.27
2018-02-02T02:42:47.323Z,22.57
2018-02-02T02:45:15.592Z,21.77
2018-02-02T02:47:43.863Z,20.83
2018-02-02T02:50:12.139Z,25.07
2018-02-02T02:52:40.406Z,26.07
2018-02-02T02:55:08.650Z,23.83
2018-02-02T02:57:37.688Z,23.53
2018-02-02T03:00:05.968Z,26.63
2018-02-02T03:02:34.330Z,25.97
2018-02-02T03:05:02.627Z,25.13
2018-02-02T03:07:30.878Z,24.47
2018-02-02T03:09:59.148Z,28.80
2018-02-02T03:12:27.611Z,24.67
2018-02-02T03:14:56.640Z,26.73
2018-02-02T03:17:24.890Z,22.57
2018-02-02T03:19:53.326Z,26.47
2018-02-02T03:22:21.594Z,23.07
2018-02-02T03:24:49.863Z,27.27
2018-02-02T03:27:18.159Z,27.23
2018-02-02T03:29:47.215Z,26.93
2018-02-02T03:32:15.478Z,24.37
2018-02-02T03:34:43.750Z,28.63
2018-02-02T03:37:12.010Z,27.27
2018-02-02T03:39:40.267Z,28.20
2018-02-02T03:42:09.303Z,30.57
2018-02-02T03:44:37.575Z,32.23
2018-02-02T03:47:05.834Z,27.03
2018-02-02T03:49:34.206Z,30.87
2018-02-02T03:52:02.655Z,29.93
2018-02-02T03:54:31.753Z,29.40
2018-02-02T03:57:00.790Z,31.10
2018-02-02T03:59:29.058Z,32.33
2018-02-02T04:01:57.499Z,29.37
2018-02-02T04:04:26.556Z,31.67
2018-02-02T04:06:54.818Z,29.70
2018-02-02T04:09:23.084Z,30.37
2018-02-02T04:11:51.362Z,26.90
2018-02-02T04:14:19.774Z,32.63
2018-02-02T04:16:48.038Z,27.43
2018-02-02T04:19:16.334Z,27.73
2018-02-02T04:21:44.650Z,30.30
2018-02-02T04:24:12.939Z,28.73
2018-02-02T04:26:41.211Z,27.17
2018-02-02T04:29:09.512Z,25.73
2018-02-02T04:31:37.902Z,25.50
2018-02-02T04:34:06.159Z,27.20
2018-02-02T04:36:34.422Z,27.17
2018-02-02T04:39:02.676Z,25.93
2018-02-02T04:41:30.946Z,24.37
2018-02-02T04:43:59.338Z,28.57
2018-02-02T04:46:27.601Z,23.33
2018-02-02T04:48:55.871Z,26.73
2018-02-02T04:51:24.142Z,27.37
2018-02-02T04:53:52.400Z,27.50
2018-02-02T04:56:21.444Z,27.20
2018-02-02T04:58:49.690Z,27.67
2018-02-02T05:01:17.971Z,30.93
2018-02-02T05:03:46.218Z,25.63
2018-02-02T05:06:14.502Z,26.97
2018-02-02T05:08:42.832Z,26.50
2018-02-02T05:11:11.074Z,25.93
2018-02-02T05:13:39.371Z,29.03
2018-02-02T05:16:07.629Z,23.63
2018-02-02T05:18:35.896Z,21.83
2018-02-02T05:21:04.163Z,28.97
2018-02-02T05:23:32.422Z,24.33
2018-02-02T05:26:01.443Z,24.17
2018-02-02T05:28:29.715Z,24.60
2018-02-02T05:30:57.985Z,23.33
2018-02-02T05:33:26.326Z,23.10
2018-02-02T05:35:55.369Z,24.67
2018-02-02T05:38:23.635Z,26.13
2018-02-02T05:40:51.914Z,24.20
2018-02-02T05:43:20.342Z,27.73
2018-02-02T05:45:48.593Z,27.60
2018-02-02T05:48:16.832Z,33.53
2018-02-02T05:50:45.302Z,29.40
2018-02-02T05:53:13.591Z,30.43
2018-02-02T05:55:41.971Z,28.83
2018-02-02T05:58:10.220Z,22.33
2018-02-02T06:00:38.474Z,24.60
2018-02-02T06:03:07.528Z,32.67
2018-02-02T06:05:35.795Z,25.13
2018-02-02T06:08:04.032Z,24.90
2018-02-02T06:10:32.319Z,25.33
2018-02-02T06:13:00.566Z,29.83
2018-02-02T06:15:29.590Z,30.27
2018-02-02T06:17:57.902Z,25.53
2018-02-02T06:20:26.146Z,26.20
2018-02-02T06:22:54.544Z,23.00
2018-02-02T06:25:22.829Z,22.43
2018-02-02T06:27:51.062Z,23.03
2018-02-02T06:30:19.317Z,25.17
2018-02-02T06:32:48.430Z,22.53
2018-02-02T06:35:16.723Z,24.33
2018-02-02T06:37:44.983Z,28.63
2018-02-02T06:40:13.240Z,21.93
2018-02-02T06:42:42.263Z,23.97
2018-02-02T06:45:10.509Z,24.10
2018-02-02T06:47:38.790Z,26.37
2018-02-02T06:50:07.049Z,24.77
2018-02-02T06:52:35.419Z,26.20
2018-02-02T06:55:04.465Z,24.60
2018-02-02T06:57:32.739Z,26.67
2018-02-02T07:00:01.010Z,25.07
2018-02-02T07:02:29.276Z,21.33
2018-02-02T07:04:57.603Z,23.50
2018-02-02T07:07:25.862Z,18.10
2018-02-02T07:09:54.139Z,23.33
2018-02-02T07:12:22.536Z,23.23
2018-02-02T07:14:50.772Z,21.80
2018-02-02T07:17:19.152Z,20.57
2018-02-02T07:19:47.467Z,20.73
2018-02-02T07:22:15.733Z,21.77
2018-02-02T07:24:44.843Z,22.50
2018-02-02T07:27:13.146Z,20.50
2018-02-02T07:29:41.414Z,19.63
2018-02-02T07:32:09.727Z,20.43
2018-02-02T07:34:37.979Z,18.03
2018-02-02T07:37:06.272Z,16.93
2018-02-02T07:39:34.550Z,20.67
2018-02-02T07:42:02.873Z,17.77
2018-02-02T07:44:31.124Z,16.63
2018-02-02T07:46:59.385Z,18.40
2018-02-02T07:49:27.674Z,14.53
2018-02-02T07:51:55.977Z,11.90
2018-02-02T07:54:24.964Z,12.50
2018-02-02T07:56:53.229Z,14.20
2018-02-02T07:59:21.526Z,17.83
2018-02-02T08:01:50.516Z,15.77
2018-02-02T08:04:19.604Z,13.50
2018-02-02T08:06:48.620Z,10.30
2018-02-02T08:09:17.042Z,15.00
2018-02-02T08:11:45.304Z,11.17
2018-02-02T08:14:13.561Z,18.50
2018-02-02T08:16:41.815Z,16.03
2018-02-02T08:19:10.063Z,11.17
2018-02-02T08:21:39.076Z,13.03
2018-02-02T08:24:07.362Z,10.77
2018-02-02T08:26:35.655Z,12.17
2018-02-02T08:29:03.905Z,14.93
2018-02-02T08:31:32.318Z,11.23
2018-02-02T08:34:00.578Z,17.27
2018-02-02T08:36:28.829Z,12.80
2018-02-02T08:38:57.204Z,19.17
2018-02-02T08:41:25.458Z,10.20
2018-02-02T08:43:54.598Z,16.03
2018-02-02T08:46:22.897Z,13.47
2018-02-02T08:48:51.234Z,10.57
2018-02-02T08:51:21.172Z,12.57
2018-02-02T08:53:49.440Z,10.20
2018-02-02T08:56:17.762Z,8.90
2018-02-02T08:58:46.005Z,9.37
2018-02-02T09:01:14.287Z,10.57
2018-02-02T09:03:42.548Z,11.63
2018-02-02T09:06:10.812Z,10.77
2018-02-02T09:08:39.146Z,11.80
2018-02-02T09:11:08.359Z,13.27
2018-02-02T09:13:36.651Z,12.23
2018-02-02T09:16:04.935Z,12.77
2018-02-02T09:18:33.216Z,16.70
2018-02-02T09:21:01.579Z,20.30
2018-02-02T09:23:29.842Z,17.10
2018-02-02T09:25:58.095Z,17.17
2018-02-02T09:28:27.146Z,16.57
2018-02-02T09:30:55.435Z,12.97
2018-02-02T09:33:23.830Z,13.27
2018-02-02T09:35:52.879Z,15.17
2018-02-02T09:38:21.149Z,16.33
2018-02-02T09:40:49.428Z,13.83
2018-02-02T09:43:17.747Z,14.37
2018-02-02T09:45:46.021Z,12.57
2018-02-02T09:48:14.304Z,16.20
2018-02-02T09:50:43.333Z,13.53
2018-02-02T09:53:11.565Z,14.57
2018-02-02T09:55:40.716Z,12.03
2018-02-02T09:58:08.972Z,13.67
2018-02-02T10:00:37.615Z,11.57
2018-02-02T10:03:05.864Z,11.47
2018-02-02T10:05:34.118Z,11.00
2018-02-02T10:08:02.391Z,14.17
2018-02-02T10:10:30.671Z,12.80
2018-02-02T10:12:58.946Z,11.87
2018-02-02T10:15:27.212Z,11.10
2018-02-02T10:17:55.637Z,12.27
2018-02-02T10:20:23.887Z,10.30
2018-02-02T10:22:52.212Z,11.97
2018-02-02T10:25:20.404Z,12.50
2018-02-02T10:27:48.678Z,13.60
2018-02-02T10:30:16.954Z,12.80
2018-02-02T10:32:45.245Z,12.30
2018-02-02T10:35:13.531Z,12.90
2018-02-02T10:37:41.790Z,13.63
2018-02-02T10:40:10.052Z,11.97
2018-02-02T10:42:38.390Z,10.57
2018-02-02T10:45:06.657Z,11.27
2018-02-02T10:47:34.902Z,11.13
2018-02-02T10:50:03.162Z,13.40
2018-02-02T10:52:31.434Z,12.00
2018-02-02T10:54:59.712Z,16.30
2018-02-02T10:57:28.091Z,16.47
2018-02-02T10:59:56.371Z,13.17
2018-02-02T11:02:24.645Z,17.30
2018-02-02T11:04:52.910Z,12.57
2018-02-02T11:07:21.201Z,13.53
2018-02-02T11:09:49.473Z,14.53
2018-02-02T11:12:17.939Z,14.97
2018-02-02T11:14:46.226Z,16.03
2018-02-02T11:17:14.514Z,15.40
2018-02-02T11:19:42.801Z,19.30
2018-02-02T11:22:11.074Z,18.80
2018-02-02T11:24:39.404Z,10.17
2018-02-02T11:27:07.722Z,11.73
2018-02-02T11:29:35.970Z,10.80
2018-02-02T11:32:04.475Z,10.27
2018-02-02T11:34:32.741Z,13.17
2018-02-02T11:37:00.995Z,10.27
2018-02-02T11:39:29.260Z,14.83
2018-02-02T11:41:57.535Z,10.97
2018-02-02T11:44:25.811Z,11.80
2018-02-02T11:46:54.839Z,12.00
2018-02-02T11:49:23.151Z,8.40
2018-02-02T11:51:52.198Z,9.80
2018-02-02T11:54:20.451Z,9.33
2018-02-02T11:56:48.734Z,10.53
2018-02-02T11:59:17.087Z,11.80
2018-02-02T12:01:45.311Z,10.37
2018-02-02T12:04:13.606Z,11.20
2018-02-02T12:06:43.439Z,12.00
2018-02-02T12:09:11.654Z,14.93
2018-02-02T12:11:39.911Z,10.47
2018-02-02T12:14:08.163Z,11.37
2018-02-02T12:16:37.236Z,15.83
2018-02-02T12:19:05.700Z,13.03
2018-02-02T12:21:34.759Z,13.67
2018-02-02T12:24:03.040Z,15.63
2018-02-02T12:26:31.389Z,15.53
2018-02-02T12:29:00.405Z,11.97
2018-02-02T12:31:28.667Z,15.93
2018-02-02T12:33:57.086Z,17.07
2018-02-02T12:36:25.370Z,20.37
2018-02-02T12:38:53.604Z,14.23
2018-02-02T12:41:21.889Z,15.17
2018-02-02T12:43:50.131Z,14.10
2018-02-02T12:46:18.425Z,14.90
2018-02-02T12:48:57.777Z,16.27
2018-02-02T12:51:26.855Z,13.10
2018-02-02T12:53:55.135Z,16.83
2018-02-02T12:56:23.391Z,9.47
2018-02-02T12:58:52.412Z,14.17
2018-02-02T13:01:20.778Z,12.80
2018-02-02T13:03:49.036Z,13.73
2018-02-02T13:06:17.345Z,13.57
2018-02-02T13:08:45.623Z,14.87
2018-02-02T13:11:13.898Z,10.53
2018-02-02T13:13:42.309Z,13.83
2018-02-02T13:16:10.523Z,11.27
2018-02-02T13:18:38.814Z,8.90
2018-02-02T13:21:07.071Z,10.40
2018-02-02T13:23:36.269Z,10.17
2018-02-02T13:26:04.510Z,9.03
2018-02-02T13:28:33.537Z,11.40
2018-02-02T13:31:01.810Z,8.67
2018-02-02T13:33:30.192Z,14.13
2018-02-02T13:35:58.437Z,8.97
2018-02-02T13:38:26.839Z,13.43
2018-02-02T13:40:55.117Z,9.03
2018-02-02T13:43:23.408Z,14.13
2018-02-02T13:45:51.673Z,8.97
2018-02-02T13:48:19.941Z,13.63
2018-02-02T13:50:48.315Z,13.93
2018-02-02T13:53:16.591Z,9.83
2018-02-02T13:55:44.852Z,10.83
2018-02-02T13:58:13.115Z,14.57
2018-02-02T14:00:42.130Z,17.67
2018-02-02T14:03:10.387Z,9.77
2018-02-02T14:05:39.430Z,8.43
2018-02-02T14:08:07.671Z,8.77
2018-02-02T14:10:36.105Z,13.60
2018-02-02T14:13:04.417Z,7.60
2018-02-02T14:15:32.625Z,11.97
2018-02-02T14:18:01.068Z,10.80
2018-02-02T14:20:29.342Z,12.60
2018-02-02T14:22:58.338Z,11.43
2018-02-02T14:25:26.598Z,12.13
2018-02-02T14:27:55.632Z,10.70
2018-02-02T14:30:23.936Z,11.67
2018-02-02T14:32:52.239Z,10.00
2018-02-02T14:35:21.206Z,12.57
2018-02-02T14:37:50.250Z,9.93
2018-02-02T14:40:18.509Z,8.57
2018-02-02T14:42:47.511Z,12.20
2018-02-02T14:45:15.780Z,11.20
2018-02-02T14:47:44.054Z,9.60
2018-02-02T14:50:12.296Z,7.40
2018-02-02T14:52:40.695Z,11.70
2018-02-02T14:55:09.713Z,10.60
2018-02-02T14:57:37.991Z,10.83
2018-02-02T15:00:06.276Z,9.00
2018-02-02T15:02:34.506Z,9.77
2018-02-02T15:05:03.556Z,9.67
2018-02-02T15:07:31.797Z,9.30
2018-02-02T15:10:00.086Z,11.97
2018-02-02T15:12:28.344Z,9.40
2018-02-02T15:14:56.638Z,10.20
2018-02-02T15:17:25.071Z,7.93
2018-02-02T15:19:53.296Z,7.33
2018-02-02T15:22:21.592Z,9.17
2018-02-02T15:24:49.845Z,10.30
2018-02-02T15:27:18.138Z,8.97
2018-02-02T15:29:46.419Z,11.47
2018-02-02T15:32:14.669Z,7.20
2018-02-02T15:34:43.007Z,10.10
2018-02-02T15:37:12.038Z,6.73
2018-02-02T15:39:40.277Z,9.70
2018-02-02T15:42:09.330Z,8.00
2018-02-02T15:44:37.724Z,9.33
2018-02-02T15:47:05.983Z,9.57
2018-02-02T15:49:34.203Z,8.40
2018-02-02T15:52:02.478Z,12.97
2018-02-02T15:54:30.725Z,7.73
2018-02-02T15:56:59.786Z,9.07
2018-02-02T15:59:28.064Z,12.43
2018-02-02T16:01:56.279Z,11.23
2018-02-02T16:04:25.411Z,17.50
2018-02-02T16:06:53.661Z,12.27
2018-02-02T16:09:21.895Z,11.37
2018-02-02T16:11:50.200Z,14.90
2018-02-02T16:14:20.027Z,13.80
2018-02-02T16:16:48.301Z,18.17
2018-02-02T16:19:16.574Z,19.83
2018-02-02T16:21:44.840Z,14.73
2018-02-02T16:24:13.167Z,22.60
2018-02-02T16:26:41.456Z,18.90
2018-02-02T16:29:09.727Z,15.90
2018-02-02T16:31:38.119Z,23.67
2018-02-02T16:34:06.374Z,20.37
2018-02-02T16:36:34.650Z,22.27
2018-02-02T16:39:02.916Z,20.17
2018-02-02T16:41:31.210Z,18.13
2018-02-02T16:43:59.510Z,18.00
2018-02-02T16:46:28.588Z,20.03
2018-02-02T16:48:56.857Z,23.00
2018-02-02T16:51:25.098Z,18.60
2018-02-02T16:53:53.385Z,21.00
2018-02-02T16:56:21.679Z,24.27
2018-02-02T16:58:50.731Z,20.00
2018-02-02T17:01:19.012Z,21.67
2018-02-02T17:03:47.247Z,19.07
2018-02-02T17:06:15.660Z,22.33
2018-02-02T17:08:43.943Z,24.17
2018-02-02T17:11:12.196Z,21.23
2018-02-02T17:13:40.571Z,21.73
2018-02-02T17:16:08.855Z,25.80
2018-02-02T17:18:37.147Z,27.20
2018-02-02T17:21:05.421Z,23.53
2018-02-02T17:23:35.240Z,21.90
2018-02-02T17:26:04.297Z,25.57
2018-02-02T17:28:32.591Z,24.77
2018-02-02T17:31:00.982Z,24.87
2018-02-02T17:33:29.263Z,19.43
2018-02-02T17:35:57.523Z,23.73
2018-02-02T17:38:25.848Z,25.33
2018-02-02T17:40:55.606Z,19.70
2018-02-02T17:43:23.889Z,25.53
2018-02-02T17:45:52.162Z,26.97
2018-02-02T17:48:20.432Z,19.43
2018-02-02T17:50:48.947Z,24.57
2018-02-02T17:53:17.224Z,23.67
2018-02-02T17:55:46.265Z,27.60
2018-02-02T17:58:14.599Z,27.07
2018-02-02T18:00:42.930Z,24.20
2018-02-02T18:03:11.212Z,21.37
2018-02-02T18:05:39.507Z,25.40
2018-02-02T18:08:07.790Z,23.37
2018-02-02T18:10:36.083Z,25.73
2018-02-02T18:13:05.089Z,21.37
2018-02-02T18:15:34.212Z,21.27
2018-02-02T18:18:02.464Z,27.97
2018-02-02T18:20:30.766Z,26.40
2018-02-02T18:22:59.040Z,28.77
2018-02-02T18:25:27.377Z,26.63
2018-02-02T18:27:56.419Z,27.87
2018-02-02T18:30:24.671Z,28.23
2018-02-02T18:32:52.966Z,24.50
2018-02-02T18:35:21.244Z,26.53
2018-02-02T18:37:49.529Z,22.80
2018-02-02T18:40:17.810Z,27.23
2018-02-02T18:42:46.108Z,25.17
2018-02-02T18:45:14.364Z,22.43
2018-02-02T18:47:42.643Z,19.90
2018-02-02T18:50:11.043Z,22.77
2018-02-02T18:52:40.108Z,23.17
2018-02-02T18:55:08.352Z,23.70
2018-02-02T18:57:36.607Z,16.97
2018-02-02T19:00:04.881Z,18.80
2018-02-02T19:02:33.332Z,16.53
2018-02-02T19:05:02.363Z,21.63
2018-02-02T19:07:30.631Z,20.57
2018-02-02T19:09:58.907Z,19.60
2018-02-02T19:12:27.182Z,18.20
2018-02-02T19:14:55.455Z,18.10
2018-02-02T19:17:23.832Z,17.63
2018-02-02T19:19:52.118Z,19.33
2018-02-02T19:22:20.365Z,15.87
2018-02-02T19:24:48.605Z,15.43
2018-02-02T19:27:18.400Z,16.50
2018-02-02T19:29:46.678Z,15.27
2018-02-02T19:32:14.927Z,14.20
2018-02-02T19:34:43.198Z,13.87
2018-02-02T19:37:11.461Z,18.83
2018-02-02T19:39:39.770Z,15.27
2018-02-02T19:42:08.085Z,15.77
2018-02-02T19:44:37.139Z,14.47
2018-02-02T19:47:05.491Z,19.80
2018-02-02T19:49:33.768Z,14.07
2018-02-02T19:52:02.054Z,12.60
2018-02-02T19:54:30.502Z,13.13
2018-02-02T19:56:58.821Z,11.50
2018-02-02T19:59:27.136Z,10.17
2018-02-02T20:01:55.400Z,17.43
2018-02-02T20:04:24.616Z,17.90
2018-02-02T20:06:53.635Z,12.30
2018-02-02T20:09:21.931Z,14.07
2018-02-02T20:11:50.305Z,11.60
2018-02-02T20:14:18.556Z,11.37
2018-02-02T20:16:47.615Z,13.17
2018-02-02T20:19:15.872Z,12.33
2018-02-02T20:21:44.115Z,13.37
2018-02-02T20:24:12.366Z,13.27
2018-02-02T20:26:40.666Z,8.87
2018-02-02T20:29:08.943Z,10.60
2018-02-02T20:31:38.150Z,7.30
2018-02-02T20:34:06.453Z,11.03
2018-02-02T20:36:34.718Z,6.77
2018-02-02T20:39:03.108Z,6.63
2018-02-02T20:41:31.383Z,6.60
2018-02-02T20:44:00.655Z,7.10
2018-02-02T20:46:28.926Z,10.43
2018-02-02T20:48:57.173Z,10.10
2018-02-02T20:51:25.590Z,10.17
2018-02-02T20:53:53.812Z,12.70
2018-02-02T20:56:22.102Z,12.03
2018-02-02T20:58:50.415Z,15.30
2018-02-02T21:01:18.649Z,12.23
2018-02-02T21:03:46.933Z,15.37
2018-02-02T21:06:15.196Z,12.90
2018-02-02T21:08:44.238Z,12.30
2018-02-02T21:11:12.470Z,10.20
2018-02-02T21:13:40.739Z,11.50
2018-02-02T21:16:09.014Z,14.00
2018-02-02T21:18:37.299Z,10.27
2018-02-02T21:21:05.579Z,11.40
2018-02-02T21:23:33.800Z,10.87
2018-02-02T21:26:02.046Z,9.73
2018-02-02T21:28:30.321Z,10.90
2018-02-02T21:30:58.608Z,12.33
2018-02-02T21:33:26.904Z,13.47
2018-02-02T21:35:55.172Z,7.40
2018-02-02T21:38:23.432Z,7.33
2018-02-02T21:40:51.714Z,8.73
2018-02-02T21:43:20.104Z,10.23
2018-02-02T21:45:49.155Z,12.40
2018-02-02T21:48:17.506Z,8.80
2018-02-02T21:50:46.493Z,9.30
2018-02-02T21:53:14.750Z,7.67
2018-02-02T21:55:45.786Z,8.37
2018-02-02T21:58:15.029Z,11.03
2018-02-02T22:00:43.969Z,9.43
2018-02-02T22:03:12.228Z,8.80
2018-02-02T22:05:40.499Z,10.47
2018-02-02T22:08:08.991Z,11.37
2018-02-02T22:10:37.402Z,12.23
2018-02-02T22:13:06.405Z,11.50
2018-02-02T22:15:34.680Z,11.00
2018-02-02T22:18:03.711Z,12.17
2018-02-02T22:20:31.979Z,9.73
2018-02-02T22:23:00.246Z,12.20
2018-02-02T22:25:28.498Z,13.90
2018-02-02T22:27:56.758Z,8.73
2018-02-02T22:30:25.054Z,15.53
2018-02-02T22:32:53.324Z,12.23
2018-02-02T22:35:21.579Z,11.30
2018-02-02T22:37:50.623Z,8.13
2018-02-02T22:40:18.931Z,12.33
2018-02-02T22:42:47.232Z,16.47
2018-02-02T22:45:16.235Z,10.33
2018-02-02T22:47:44.482Z,8.57
2018-02-02T22:50:13.541Z,11.57
2018-02-02T22:52:41.777Z,11.33
2018-02-02T22:55:10.113Z,10.57
2018-02-02T22:57:38.355Z,11.97
2018-02-02T23:00:06.728Z,11.87
2018-02-02T23:02:34.997Z,17.00
2018-02-02T23:05:03.262Z,13.23
2018-02-02T23:07:31.569Z,14.20
2018-02-02T23:09:59.807Z,13.13
2018-02-02T23:12:28.103Z,13.00
2018-02-02T23:14:56.444Z,14.40
2018-02-02T23:17:24.711Z,12.93
2018-02-02T23:19:54.102Z,18.27
2018-02-02T23:22:22.351Z,16.63
2018-02-02T23:24:50.642Z,12.90
2018-02-02T23:27:20.386Z,11.17
2018-02-02T23:29:48.676Z,14.30
2018-02-02T23:32:16.914Z,14.73
2018-02-02T23:34:45.191Z,17.70
2018-02-02T23:37:14.227Z,11.67
2018-02-02T23:39:42.510Z,12.23
2018-02-02T23:42:10.805Z,13.03
2018-02-02T23:44:39.079Z,15.03
2018-02-02T23:47:08.925Z,15.23
2018-02-02T23:49:37.917Z,14.87
2018-02-02T23:52:06.198Z,12.10
2018-02-02T23:54:34.441Z,13.03
2018-02-02T23:57:02.805Z,12.13
